KOAJ/OAJ METAR and TAF weather

Enter ICAO airport designator
Station Type Date Time Source
KOAJ METAR 2019/06/17 12:39 UTC NOAA

KOAJ 171239Z 23006KT 10SM OVC005 25/24 A3009 RMK AO2 CIG 004V009


Station Type Date Time Source
KOAJ Decoded METAR 2019/06/17 12:39 UTC NOAA

Jacksonville, Albert J Ellis Airport, NC, United States (KOAJ) 34-50N 077-37W
Jun 17, 2019 - 08:39 AM EDT / 2019.06.17 1239 UTC
Wind: from the SW (230 degrees) at 7 MPH (6 KT):0
Visibility: 10 mile(s):0
Sky conditions: overcast
Temperature: 77 F (25 C)
Dew Point: 75 F (24 C)
Relative Humidity: 94%
Pressure (altimeter): 30.09 in. Hg (1018 hPa)
ob: KOAJ 171239Z 23006KT 10SM OVC005 25/24 A3009 RMK AO2 CIG 004V009
cycle: 12

Station Type Date Time Source
KOAJ TAF 2019/06/17 12:30 UTC NOAA

TAF KOAJ 171128Z 1712/1812 19005KT P6SM SCT050
TEMPO 1712/1714 1/2SM FG OVC004
FM171700 21009G15KT P6SM SCT050
FM180000 18007KT P6SM FEW250
FM180800 21004KT P6SM SCT005
AMD LTD TO CLD VIS AND WIND

Example: see airport list